Decoded Metar for DAAT (TAMANRASSET in ALGERIA) (IATA:TMR) | Meteo·Mobile Aviation Weather
aviador You're here:

DAAT Decoded Metar

TAMANRASSET in ALGERIA
Report Time2018-09-19 15:00:00
UTC Time2018-09-19 15:15:42
Flight Rules vfr VFR
Wind080° at 09 kt
W.Decomp.*RWY 08: 9.0 kt HW -0 kt LCW
RWY 02: 4.5 kt HW 7.8 kt RCW
W.Rank080° ranks 1
Current wind is below 080° avg. (9.6)
Visibility9999 m
Phenomena:N/A
Clouds:Scattered 046 Hf
Scattered 100 Hf
Expected CloudBase > 10,800 ft AGL from Temp-Dew spread
CeilingNone
Temp31°C (ISA +25)
Dew Point04°C (18% RH)
Heat Index29.0°C
AAT26.4°C
QNH1021 hPa
Density Alt7,185 ft
Elevation4,518 ft
Report Wrong Elevation
Raw Report
DAAT 191500Z 08009KT 340V120 9999 SCT046 SCT100 31/04 Q1021=

Extra information for DAAT:More info

Metar Taf Metar & Taf Last 4 Metars F.Rules Stats Wind Profile Meteogram Temp Stats Airport Information Weather charts Add Link Nearby VenuesMetar ALERT Operation Metar Decoded Social comments